Time;durP1;ratioP1;P1;durP2;ratioP2;P2;SDS_P1;SDS_P2;PMS_P1;PMS_P2;Temp;Humidity;BMP_temperature;BMP_pressure;BME280_temperature;BME280_humidity;BME280_pressure;Samples;Min_cycle;Max_cycle;Signal;HPM_P1;HPM_P2
2022/08/26 00:00:26;;;;;;;;;;;;;;;26.74;54.25;99749.13;2105927;28;19916;-47
2022/08/26 00:01:26;;;;;;;;;;;;;;;26.74;54.13;99749.13;2105386;28;19912;-47
2022/08/26 00:02:27;;;;;;;;;;;;;;;26.74;54.13;99749.13;2098353;28;19924;-47
2022/08/26 00:03:27;;;;;;;;;;;;;;;26.73;54.16;99753.81;2102216;28;20141;-47
2022/08/26 00:04:28;;;;;;;;;;;;;;;26.73;54.10;99752.97;2104700;28;20332;-46
2022/08/26 00:05:29;;;;;;;;;;;;;;;26.73;54.15;99744.66;2105640;28;19955;-47
2022/08/26 00:06:30;;;;;;;;;;;;;;;26.72;54.18;99745.69;2103938;28;20339;-47
2022/08/26 00:07:31;;;;;;;;;;;;;;;26.73;54.46;99747.44;2097256;28;19916;-47
2022/08/26 00:08:31;;;;;;;;;;;;;;;26.73;54.30;99747.44;2104185;28;19967;-48
2022/08/26 00:09:32;;;;;;;;;;;;;;;26.73;54.33;99750.19;2103169;28;20048;-47
2022/08/26 00:10:32;;;;;;;;;;;;;;;26.72;54.41;99745.69;2107205;28;19916;-47
2022/08/26 00:11:32;;;;;;;;;;;;;;;26.72;54.38;99745.69;2118431;27;20281;-47
2022/08/26 00:12:33;;;;;;;;;;;;;;;26.72;54.27;99756.75;2122326;27;19915;-46
2022/08/26 00:13:34;;;;;;;;;;;;;;;26.72;54.35;99756.75;2103668;28;19919;-47
2022/08/26 00:14:34;;;;;;;;;;;;;;;26.71;54.46;99750.38;2102565;28;20115;-47
2022/08/26 00:15:35;;;;;;;;;;;;;;;26.71;54.44;99749.53;2102485;28;20491;-46
2022/08/26 00:16:35;;;;;;;;;;;;;;;26.72;54.49;99754.00;2102949;28;20230;-46
2022/08/26 00:17:36;;;;;;;;;;;;;;;26.72;54.21;99751.22;2121079;27;20496;-47
2022/08/26 00:18:37;;;;;;;;;;;;;;;26.72;54.48;99745.69;2123076;27;20276;-47
2022/08/26 00:19:37;;;;;;;;;;;;;;;26.72;54.13;99751.22;2105381;28;19924;-47
2022/08/26 00:20:38;;;;;;;;;;;;;;;26.71;54.43;99746.78;2098210;28;19969;-47
2022/08/26 00:21:39;;;;;;;;;;;;;;;26.72;54.35;99740.16;2101922;28;19916;-47
2022/08/26 00:22:39;;;;;;;;;;;;;;;26.72;54.18;99751.22;2106499;28;19920;-46
2022/08/26 00:23:40;;;;;;;;;;;;;;;26.72;54.19;99746.53;2100840;28;19916;-47
2022/08/26 00:24:40;;;;;;;;;;;;;;;26.73;54.04;99747.44;2102974;28;19916;-47
2022/08/26 00:25:40;;;;;;;;;;;;;;;26.72;54.04;99746.53;2098970;28;19916;-46
2022/08/26 00:26:40;;;;;;;;;;;;;;;26.72;54.14;99740.16;2106269;28;19908;-47
2022/08/26 00:27:42;;;;;;;;;;;;;;;26.72;54.26;99740.16;2098913;28;20334;-47
2022/08/26 00:28:43;;;;;;;;;;;;;;;26.72;54.03;99734.66;2100541;28;19912;-47
2022/08/26 00:29:43;;;;;;;;;;;;;;;26.72;54.19;99740.16;2095741;28;19973;-48
2022/08/26 00:30:46;;;;;;;;;;;;;;;26.72;54.14;99734.66;2094884;28;19916;-47
2022/08/26 00:31:47;;;;;;;;;;;;;;;26.71;54.13;99742.09;2099462;28;20017;-46
2022/08/26 00:32:47;;;;;;;;;;;;;;;26.72;53.98;99740.16;2096897;28;20018;-46
2022/08/26 00:33:48;;;;;;;;;;;;;;;26.71;53.99;99739.31;2092822;28;19964;-46
2022/08/26 00:34:48;;;;;;;;;;;;;;;26.72;54.20;99740.16;2108027;28;20027;-46
2022/08/26 00:35:49;;;;;;;;;;;;;;;26.71;54.21;99741.25;2109326;27;19973;-47
2022/08/26 00:36:49;;;;;;;;;;;;;;;26.71;54.10;99744.84;2092007;28;20403;-46
2022/08/26 00:37:50;;;;;;;;;;;;;;;26.70;54.19;99732.09;2094028;28;20094;-47
2022/08/26 00:38:50;;;;;;;;;;;;;;;26.72;54.25;99742.94;2093680;28;19919;-47
2022/08/26 00:39:51;;;;;;;;;;;;;;;26.72;53.96;99740.16;2100544;28;20153;-47
2022/08/26 00:40:54;;;;;;;;;;;;;;;26.72;53.98;99740.16;2094608;28;19944;-46
2022/08/26 00:41:54;;;;;;;;;;;;;;;26.71;54.25;99749.53;2095546;28;19920;-47
2022/08/26 00:42:54;;;;;;;;;;;;;;;26.71;54.07;99735.72;2099123;28;19942;-47
2022/08/26 00:43:55;;;;;;;;;;;;;;;26.71;54.00;99744.00;2095597;28;20365;-47
2022/08/26 00:44:55;;;;;;;;;;;;;;;26.71;54.17;99738.47;2096121;28;19951;-47
2022/08/26 00:46:04;;;;;;;;;;;;;;;26.70;53.98;99740.41;2094660;28;19912;-47
2022/08/26 00:47:08;;;;;;;;;;;;;;;26.70;54.20;99743.16;2098058;28;19916;-47
2022/08/26 00:48:09;;;;;;;;;;;;;;;26.69;53.97;99735.06;2101263;28;19920;-47
2022/08/26 00:49:21;;;;;;;;;;;;;;;26.69;54.06;99730.38;2098323;28;19916;-47
2022/08/26 00:50:23;;;;;;;;;;;;;;;26.69;54.10;99737.84;2097001;28;19951;-47
2022/08/26 00:51:26;;;;;;;;;;;;;;;26.69;54.11;99738.69;2095857;28;19909;-47
2022/08/26 00:52:26;;;;;;;;;;;;;;;26.69;54.07;99740.59;2097554;28;20158;-46
2022/08/26 00:53:29;;;;;;;;;;;;;;;26.69;54.06;99741.44;2095243;28;19924;-47
2022/08/26 00:54:33;;;;;;;;;;;;;;;26.68;54.04;99737.00;2096102;28;19948;-47
2022/08/26 00:55:38;;;;;;;;;;;;;;;26.69;54.32;99737.84;2098572;28;19946;-47
2022/08/26 00:56:54;;;;;;;;;;;;;;;26.68;54.20;99741.66;2099797;28;19916;-47
2022/08/26 00:57:54;;;;;;;;;;;;;;;26.69;54.34;99743.38;2101124;28;20394;-47
2022/08/26 00:58:57;;;;;;;;;;;;;;;26.69;54.18;99743.38;2097916;28;20144;-46
2022/08/26 00:59:59;;;;;;;;;;;;;;;26.68;53.98;99738.91;2098102;28;20758;-46
2022/08/26 01:01:00;;;;;;;;;;;;;;;26.67;54.21;99743.56;2092732;28;20301;-46
2022/08/26 01:02:01;;;;;;;;;;;;;;;26.68;54.14;99744.44;2094419;28;19927;-47
2022/08/26 01:03:02;;;;;;;;;;;;;;;26.67;53.90;99737.19;2092160;28;19999;-47
2022/08/26 01:04:02;;;;;;;;;;;;;;;26.67;54.01;99737.19;2092117;28;20444;-47
2022/08/26 01:05:06;;;;;;;;;;;;;;;26.68;53.87;99738.91;2092606;28;20438;-47
2022/08/26 01:06:07;;;;;;;;;;;;;;;26.67;54.13;99742.72;2094279;28;19908;-47
2022/08/26 01:07:07;;;;;;;;;;;;;;;26.67;54.00;99738.03;2099870;28;19961;-47
2022/08/26 01:08:07;;;;;;;;;;;;;;;26.68;53.78;99747.19;2099604;28;19912;-47
2022/08/26 01:09:08;;;;;;;;;;;;;;;26.67;53.95;99738.03;2099403;28;19981;-47
2022/08/26 01:10:10;;;;;;;;;;;;;;;26.68;54.14;99747.19;2097925;28;19999;-47
2022/08/26 01:11:11;;;;;;;;;;;;;;;26.67;54.20;99737.19;2094243;28;19920;-47
2022/08/26 01:12:12;;;;;;;;;;;;;;;26.67;53.92;99737.19;2097348;28;19919;-47
2022/08/26 01:13:12;;;;;;;;;;;;;;;26.68;54.12;99733.38;2098765;28;19917;-46
2022/08/26 01:14:13;;;;;;;;;;;;;;;26.67;53.85;99735.25;2096872;28;19917;-47
2022/08/26 01:15:21;;;;;;;;;;;;;;;26.69;53.97;99746.13;2112551;27;19922;-47
2022/08/26 01:16:24;;;;;;;;;;;;;;;26.67;54.07;99742.72;2107089;27;19920;-47
2022/08/26 01:17:24;;;;;;;;;;;;;;;26.70;54.05;99747.81;2092506;28;19920;-47
2022/08/26 01:18:25;;;;;;;;;;;;;;;26.68;53.97;99737.00;2095894;28;19953;-46
2022/08/26 01:19:28;;;;;;;;;;;;;;;26.68;53.94;99744.44;2099415;28;19916;-47
2022/08/26 01:20:28;;;;;;;;;;;;;;;26.68;54.07;99739.75;2100252;28;19915;-47
2022/08/26 01:21:29;;;;;;;;;;;;;;;26.68;53.75;99738.91;2098845;28;20419;-47
2022/08/26 01:22:52;;;;;;;;;;;;;;;26.69;54.05;99743.38;2097960;28;19919;-47
2022/08/26 01:23:54;;;;;;;;;;;;;;;26.68;53.75;99744.44;2088678;28;19908;-47
2022/08/26 01:24:56;;;;;;;;;;;;;;;26.68;53.86;99744.44;2098166;28;19916;-46
2022/08/26 01:25:59;;;;;;;;;;;;;;;26.68;53.95;99744.44;2098449;28;19913;-47
2022/08/26 01:27:02;;;;;;;;;;;;;;;26.67;53.90;99743.56;2117310;27;19915;-46
2022/08/26 01:28:09;;;;;;;;;;;;;;;26.67;53.88;99748.25;2109797;27;20333;-47
2022/08/26 01:29:13;;;;;;;;;;;;;;;26.68;53.73;99744.44;2095507;28;19916;-47
2022/08/26 01:30:14;;;;;;;;;;;;;;;26.67;54.02;99748.25;2091838;28;19916;-46
2022/08/26 01:31:16;;;;;;;;;;;;;;;26.67;53.94;99742.72;2092943;28;19912;-46
2022/08/26 01:32:18;;;;;;;;;;;;;;;26.67;53.71;99742.72;2099615;28;19924;-47
2022/08/26 01:33:22;;;;;;;;;;;;;;;26.67;53.76;99748.25;2102815;28;19916;-47
2022/08/26 01:34:30;;;;;;;;;;;;;;;26.67;53.71;99748.25;2098765;28;19920;-48
2022/08/26 01:35:31;;;;;;;;;;;;;;;26.67;53.84;99745.47;2097667;28;20437;-47
2022/08/26 01:36:32;;;;;;;;;;;;;;;26.66;53.66;99746.56;2092889;28;19920;-47
2022/08/26 01:37:34;;;;;;;;;;;;;;;26.66;53.95;99746.56;2113355;27;20017;-47
2022/08/26 01:38:34;;;;;;;;;;;;;;;26.65;53.61;99745.69;2110757;27;19941;-47
2022/08/26 01:39:35;;;;;;;;;;;;;;;26.65;53.61;99750.38;2108861;27;20304;-47
2022/08/26 01:40:36;;;;;;;;;;;;;;;26.65;53.81;99745.69;2113305;27;19939;-47
2022/08/26 01:41:39;;;;;;;;;;;;;;;26.64;53.85;99740.38;2100211;28;19919;-47
2022/08/26 01:42:40;;;;;;;;;;;;;;;26.64;53.89;99738.47;2096926;28;20699;-46
2022/08/26 01:43:43;;;;;;;;;;;;;;;26.65;53.92;99744.84;2101588;28;20185;-46
2022/08/26 01:44:50;;;;;;;;;;;;;;;26.64;53.91;99743.97;2095736;28;19963;-46
2022/08/26 01:45:53;;;;;;;;;;;;;;;26.64;53.78;99738.47;2094537;28;19920;-47
2022/08/26 01:46:55;;;;;;;;;;;;;;;26.65;53.89;99745.69;2110909;27;19919;-47
2022/08/26 01:47:57;;;;;;;;;;;;;;;26.65;53.87;99744.84;2108552;27;19951;-47
2022/08/26 01:48:59;;;;;;;;;;;;;;;26.64;53.86;99745.91;2095234;28;20006;-47
2022/08/26 01:50:02;;;;;;;;;;;;;;;26.64;53.82;99749.50;2097334;28;19924;-46
2022/08/26 01:51:04;;;;;;;;;;;;;;;26.64;53.70;99754.19;2098469;28;19912;-48
2022/08/26 01:52:06;;;;;;;;;;;;;;;26.64;53.78;99740.38;2098347;28;19923;-47
2022/08/26 01:53:08;;;;;;;;;;;;;;;26.64;53.51;99743.13;2092717;28;19923;-46
2022/08/26 01:54:09;;;;;;;;;;;;;;;26.64;53.75;99746.75;2100992;28;19912;-46
2022/08/26 01:55:10;;;;;;;;;;;;;;;26.64;53.51;99743.13;2097874;28;19923;-47
2022/08/26 01:56:11;;;;;;;;;;;;;;;26.64;53.67;99743.13;2099512;28;20381;-47
2022/08/26 01:57:13;;;;;;;;;;;;;;;26.64;53.67;99743.13;2099110;28;20400;-47
2022/08/26 01:58:22;;;;;;;;;;;;;;;26.64;53.67;99743.97;2098614;28;19908;-47
2022/08/26 01:59:22;;;;;;;;;;;;;;;26.64;53.68;99745.91;2099032;28;20296;-47
2022/08/26 02:00:24;;;;;;;;;;;;;;;26.64;53.65;99740.38;2096619;28;19956;-46
2022/08/26 02:01:25;;;;;;;;;;;;;;;26.65;53.80;99744.84;2097122;28;20823;-46
2022/08/26 02:02:26;;;;;;;;;;;;;;;26.64;53.46;99745.91;2091193;28;20226;-47
2022/08/26 02:03:27;;;;;;;;;;;;;;;26.64;53.87;99743.97;2092834;28;19923;-47
2022/08/26 02:04:36;;;;;;;;;;;;;;;26.64;53.59;99743.13;2092262;28;20155;-47
2022/08/26 02:05:36;;;;;;;;;;;;;;;26.63;53.72;99741.41;2091363;28;20452;-46
2022/08/26 02:06:37;;;;;;;;;;;;;;;26.64;53.74;99746.75;2096652;28;19908;-47
2022/08/26 02:07:38;;;;;;;;;;;;;;;26.63;53.60;99746.94;2098969;28;20385;-47
2022/08/26 02:08:49;;;;;;;;;;;;;;;26.63;53.74;99745.06;2094458;28;20428;-47
2022/08/26 02:09:50;;;;;;;;;;;;;;;26.64;53.71;99743.13;2108830;27;19923;-46
2022/08/26 02:10:50;;;;;;;;;;;;;;;26.63;53.54;99752.47;2115389;27;20128;-47
2022/08/26 02:11:51;;;;;;;;;;;;;;;26.63;53.45;99744.19;2096010;28;19909;-47
2022/08/26 02:12:52;;;;;;;;;;;;;;;26.63;53.71;99746.94;2106838;27;20124;-47
2022/08/26 02:14:07;;;;;;;;;;;;;;;26.63;53.56;99738.66;2115816;27;19915;-46
2022/08/26 02:15:09;;;;;;;;;;;;;;;26.64;53.63;99743.97;2097566;28;21179;-46
2022/08/26 02:16:10;;;;;;;;;;;;;;;26.64;53.39;99743.13;2097473;28;19931;-47
2022/08/26 02:17:11;;;;;;;;;;;;;;;26.64;53.65;99745.91;2091022;28;20011;-46
2022/08/26 02:18:11;;;;;;;;;;;;;;;26.63;53.42;99747.81;2095631;28;19919;-47
2022/08/26 02:19:13;;;;;;;;;;;;;;;26.63;53.49;99746.94;2095943;28;20177;-46
2022/08/26 02:20:16;;;;;;;;;;;;;;;26.63;53.57;99746.94;2096044;28;20349;-46
2022/08/26 02:21:16;;;;;;;;;;;;;;;26.63;53.49;99747.81;2098562;28;19916;-46
2022/08/26 02:22:18;;;;;;;;;;;;;;;26.62;53.46;99751.63;2095449;28;19920;-47
2022/08/26 02:23:19;;;;;;;;;;;;;;;26.62;53.52;99754.41;2099089;28;19916;-46
2022/08/26 02:24:20;;;;;;;;;;;;;;;26.62;53.47;99756.31;2092746;28;20417;-47
2022/08/26 02:25:28;;;;;;;;;;;;;;;26.62;53.49;99750.78;2093476;28;19916;-46
2022/08/26 02:26:28;;;;;;;;;;;;;;;26.61;53.45;99743.56;2097997;28;20009;-47
2022/08/26 02:27:30;;;;;;;;;;;;;;;26.61;53.35;99749.09;2099055;28;19921;-47
2022/08/26 02:28:33;;;;;;;;;;;;;;;26.62;53.55;99750.78;2092910;28;19925;-46
2022/08/26 02:29:37;;;;;;;;;;;;;;;26.61;53.52;99758.22;2097492;28;20424;-47
2022/08/26 02:30:38;;;;;;;;;;;;;;;26.61;53.43;99763.75;2099272;28;19920;-47
2022/08/26 02:31:38;;;;;;;;;;;;;;;26.60;53.59;99752.91;2095901;28;19908;-47
2022/08/26 02:32:39;;;;;;;;;;;;;;;26.60;53.50;99758.44;2091633;28;19912;-46
2022/08/26 02:33:40;;;;;;;;;;;;;;;26.60;53.44;99752.91;2089482;28;19920;-45
2022/08/26 02:34:40;;;;;;;;;;;;;;;26.60;53.69;99759.28;2094553;28;19967;-46
2022/08/26 02:35:40;;;;;;;;;;;;;;;26.61;53.61;99765.69;2092876;28;19960;-45
2022/08/26 02:36:41;;;;;;;;;;;;;;;26.60;53.45;99763.97;2093513;28;21049;-46
2022/08/26 02:37:41;;;;;;;;;;;;;;;26.60;53.41;99758.44;2092170;28;20281;-45
2022/08/26 02:38:42;;;;;;;;;;;;;;;26.60;53.71;99766.72;2096203;28;20264;-45
2022/08/26 02:39:42;;;;;;;;;;;;;;;26.60;53.41;99759.28;2091980;28;20567;-45
2022/08/26 02:40:43;;;;;;;;;;;;;;;26.60;53.56;99770.31;2095272;28;19923;-46
2022/08/26 02:41:44;;;;;;;;;;;;;;;26.60;53.41;99758.44;2100125;28;19946;-45
2022/08/26 02:42:45;;;;;;;;;;;;;;;26.61;53.60;99765.69;2097812;28;20442;-46
2022/08/26 02:43:45;;;;;;;;;;;;;;;26.60;53.36;99769.47;2094222;28;19920;-46
2022/08/26 02:44:45;;;;;;;;;;;;;;;26.60;53.55;99758.44;2094672;28;19931;-46
2022/08/26 02:45:46;;;;;;;;;;;;;;;26.60;53.42;99764.81;2097553;28;20536;-46
2022/08/26 02:46:46;;;;;;;;;;;;;;;26.60;53.44;99763.97;2092554;28;20452;-46
2022/08/26 02:47:47;;;;;;;;;;;;;;;26.60;53.32;99759.28;2092643;28;19915;-46
2022/08/26 02:48:47;;;;;;;;;;;;;;;26.60;53.41;99766.72;2098194;28;19963;-45
2022/08/26 02:49:48;;;;;;;;;;;;;;;26.60;53.31;99766.72;2095249;28;20817;-46
2022/08/26 02:50:48;;;;;;;;;;;;;;;26.60;53.48;99766.72;2099718;28;19916;-45
2022/08/26 02:51:49;;;;;;;;;;;;;;;26.60;53.25;99769.47;2095564;28;20390;-45
2022/08/26 02:52:49;;;;;;;;;;;;;;;26.59;53.33;99774.16;2096570;28;20062;-46
2022/08/26 02:53:49;;;;;;;;;;;;;;;26.60;53.51;99773.09;2098374;28;20113;-47
2022/08/26 02:54:50;;;;;;;;;;;;;;;26.60;53.25;99769.47;2094323;28;20147;-46
2022/08/26 02:55:50;;;;;;;;;;;;;;;26.60;53.26;99772.25;2100275;28;20360;-46
2022/08/26 02:56:50;;;;;;;;;;;;;;;26.60;53.45;99772.25;2096368;28;19923;-46
2022/08/26 02:57:51;;;;;;;;;;;;;;;26.59;53.20;99774.16;2102292;28;20031;-45
2022/08/26 02:58:52;;;;;;;;;;;;;;;26.59;53.32;99767.78;2108899;27;19977;-45
2022/08/26 02:59:52;;;;;;;;;;;;;;;26.60;53.46;99773.09;2094747;28;20061;-45
2022/08/26 03:00:52;;;;;;;;;;;;;;;26.59;53.44;99768.63;2092130;28;19916;-46
2022/08/26 03:01:52;;;;;;;;;;;;;;;26.59;53.19;99770.56;2100617;28;19926;-45
2022/08/26 03:02:53;;;;;;;;;;;;;;;26.59;53.25;99774.16;2107153;27;19916;-46
2022/08/26 03:03:54;;;;;;;;;;;;;;;26.59;53.13;99767.78;2111278;27;19915;-45
2022/08/26 03:04:54;;;;;;;;;;;;;;;26.59;53.15;99770.56;2095223;28;19927;-46
2022/08/26 03:05:54;;;;;;;;;;;;;;;26.59;53.45;99767.78;2096718;28;19966;-45
2022/08/26 03:06:55;;;;;;;;;;;;;;;26.58;53.42;99768.84;2100016;28;20306;-46
2022/08/26 03:07:56;;;;;;;;;;;;;;;26.58;53.18;99768.84;2093314;28;19943;-46
2022/08/26 03:08:56;;;;;;;;;;;;;;;26.59;53.18;99773.31;2096509;28;19977;-46
2022/08/26 03:09:57;;;;;;;;;;;;;;;26.58;53.19;99774.38;2093882;28;19981;-45
2022/08/26 03:10:58;;;;;;;;;;;;;;;26.58;53.18;99766.06;2104466;28;19920;-46
2022/08/26 03:11:58;;;;;;;;;;;;;;;26.57;53.09;99767.13;2100971;28;19976;-46
2022/08/26 03:12:59;;;;;;;;;;;;;;;26.57;53.34;99767.13;2100003;28;19916;-46
2022/08/26 03:13:59;;;;;;;;;;;;;;;26.57;53.39;99764.38;2098663;28;20024;-46
2022/08/26 03:15:00;;;;;;;;;;;;;;;26.56;53.13;99768.22;2093418;28;19920;-46
2022/08/26 03:16:01;;;;;;;;;;;;;;;26.57;53.25;99764.38;2095592;28;19928;-46
2022/08/26 03:17:01;;;;;;;;;;;;;;;26.57;53.06;99772.66;2102805;28;19946;-46
2022/08/26 03:18:01;;;;;;;;;;;;;;;26.56;53.14;99768.22;2097809;28;20392;-45
2022/08/26 03:19:02;;;;;;;;;;;;;;;26.56;53.33;99762.69;2103184;28;20128;-46
2022/08/26 03:20:04;;;;;;;;;;;;;;;26.56;53.07;99762.69;2100930;28;20312;-47
2022/08/26 03:21:09;;;;;;;;;;;;;;;26.55;53.08;99766.50;2100235;28;19916;-46
2022/08/26 03:22:09;;;;;;;;;;;;;;;26.56;53.10;99763.53;2102847;28;20014;-46
2022/08/26 03:23:10;;;;;;;;;;;;;;;26.56;53.27;99769.06;2096172;28;20561;-46
2022/08/26 03:24:11;;;;;;;;;;;;;;;26.56;53.13;99759.94;2093427;28;19922;-46
2022/08/26 03:25:12;;;;;;;;;;;;;;;26.56;53.10;99765.44;2106336;28;20591;-46
2022/08/26 03:26:14;;;;;;;;;;;;;;;26.56;53.00;99762.69;2095894;28;19973;-45
2022/08/26 03:27:14;;;;;;;;;;;;;;;26.56;52.92;99762.69;2109781;27;19911;-45
2022/08/26 03:28:15;;;;;;;;;;;;;;;26.56;53.20;99760.78;2102068;28;19911;-45
2022/08/26 03:30:40;;;;;;;;;;;;;;;26.56;53.19;99768.22;2100613;28;19912;-46
2022/08/26 03:31:41;;;;;;;;;;;;;;;26.57;53.26;99758.84;2095480;28;19916;-45
2022/08/26 03:32:41;;;;;;;;;;;;;;;26.56;53.21;99765.44;2091904;28;19917;-45
2022/08/26 03:33:41;;;;;;;;;;;;;;;26.56;53.07;99765.44;2091661;28;19904;-46
2022/08/26 03:34:41;;;;;;;;;;;;;;;26.56;53.21;99762.69;2091866;28;20603;-45
2022/08/26 03:35:44;;;;;;;;;;;;;;;26.56;53.18;99768.22;2091038;28;20440;-46
2022/08/26 03:36:44;;;;;;;;;;;;;;;26.56;52.92;99768.22;2096399;28;19916;-46
2022/08/26 03:37:45;;;;;;;;;;;;;;;26.55;53.26;99766.50;2098841;28;19954;-45
2022/08/26 03:38:45;;;;;;;;;;;;;;;26.55;53.11;99772.03;2096500;28;19920;-46
2022/08/26 03:39:45;;;;;;;;;;;;;;;26.56;52.90;99765.44;2108398;28;20624;-46
2022/08/26 03:40:46;;;;;;;;;;;;;;;26.56;53.06;99757.16;2112259;27;19989;-45
2022/08/26 03:41:47;;;;;;;;;;;;;;;26.56;53.23;99762.69;2092412;28;19943;-46
2022/08/26 03:42:47;;;;;;;;;;;;;;;26.56;52.95;99757.16;2098088;28;19919;-46
2022/08/26 03:43:49;;;;;;;;;;;;;;;26.55;52.93;99764.56;2098401;28;19916;-46
2022/08/26 03:44:50;;;;;;;;;;;;;;;26.55;52.88;99752.66;2094222;28;19974;-45
2022/08/26 03:45:50;;;;;;;;;;;;;;;26.55;53.25;99760.97;2092420;28;19943;-46
2022/08/26 03:46:51;;;;;;;;;;;;;;;26.55;53.14;99749.91;2112860;28;20457;-46
2022/08/26 03:47:51;;;;;;;;;;;;;;;26.54;52.86;99749.06;2108409;27;19955;-46
2022/08/26 03:48:51;;;;;;;;;;;;;;;26.56;53.23;99762.69;2090800;28;20667;-45
2022/08/26 03:49:52;;;;;;;;;;;;;;;26.55;52.91;99755.44;2094818;28;19981;-45
2022/08/26 03:50:52;;;;;;;;;;;;;;;26.55;52.96;99744.38;2097653;28;19916;-46
2022/08/26 03:51:52;;;;;;;;;;;;;;;26.54;53.20;99759.28;2096623;28;20008;-46
2022/08/26 03:52:53;;;;;;;;;;;;;;;26.54;53.31;99750.97;2097597;28;19939;-46
2022/08/26 03:53:54;;;;;;;;;;;;;;;26.54;53.23;99748.22;2096339;28;19912;-46
2022/08/26 03:54:54;;;;;;;;;;;;;;;26.54;53.01;99760.13;2093541;28;19915;-46
2022/08/26 03:55:54;;;;;;;;;;;;;;;26.52;52.94;99752.00;2092364;28;19992;-45
2022/08/26 03:56:55;;;;;;;;;;;;;;;26.51;53.06;99755.81;2097822;28;19927;-45
2022/08/26 03:57:55;;;;;;;;;;;;;;;26.52;53.20;99757.50;2096554;28;19912;-46
2022/08/26 03:58:56;;;;;;;;;;;;;;;26.52;53.25;99757.50;2098056;28;20429;-46
2022/08/26 03:59:56;;;;;;;;;;;;;;;26.49;53.01;99752.41;2096116;28;19931;-45
2022/08/26 04:00:56;;;;;;;;;;;;;;;26.52;53.06;99759.44;2095896;28;19916;-46
2022/08/26 04:01:57;;;;;;;;;;;;;;;26.50;53.31;99751.34;2096424;28;19916;-46
2022/08/26 04:02:57;;;;;;;;;;;;;;;26.51;52.98;99755.81;2101439;28;20426;-45
2022/08/26 04:03:58;;;;;;;;;;;;;;;26.50;53.29;99754.09;2093072;28;20387;-45
2022/08/26 04:04:58;;;;;;;;;;;;;;;26.50;53.02;99759.63;2093877;28;19923;-46
2022/08/26 04:05:58;;;;;;;;;;;;;;;26.50;53.00;99756.88;2094839;28;19923;-46
2022/08/26 04:06:59;;;;;;;;;;;;;;;26.51;53.20;99761.34;2093753;28;19916;-46
2022/08/26 04:07:59;;;;;;;;;;;;;;;26.50;53.01;99759.63;2095691;28;19916;-46
2022/08/26 04:09:02;;;;;;;;;;;;;;;26.50;53.25;99759.63;2100558;28;20433;-45
2022/08/26 04:10:02;;;;;;;;;;;;;;;26.50;53.21;99754.09;2094028;28;19904;-46
2022/08/26 04:11:03;;;;;;;;;;;;;;;26.50;53.14;99762.41;2097468;28;19973;-46
2022/08/26 04:12:03;;;;;;;;;;;;;;;26.50;53.18;99759.63;2097177;28;19909;-46
2022/08/26 04:13:04;;;;;;;;;;;;;;;26.50;52.99;99759.63;2092762;28;19955;-45
2022/08/26 04:14:06;;;;;;;;;;;;;;;26.51;53.29;99761.34;2109222;27;20097;-46
2022/08/26 04:15:07;;;;;;;;;;;;;;;26.51;53.14;99766.88;2114981;27;19967;-46
2022/08/26 04:16:07;;;;;;;;;;;;;;;26.50;53.27;99765.16;2099830;28;19924;-46
2022/08/26 04:17:08;;;;;;;;;;;;;;;26.50;52.92;99765.16;2097689;28;19931;-46
2022/08/26 04:18:08;;;;;;;;;;;;;;;26.51;53.01;99761.34;2099711;28;19916;-46
2022/08/26 04:19:09;;;;;;;;;;;;;;;26.51;53.12;99769.66;2098228;28;19915;-46
2022/08/26 04:20:12;;;;;;;;;;;;;;;26.51;53.22;99766.88;2099320;28;19991;-46
2022/08/26 04:21:13;;;;;;;;;;;;;;;26.50;53.19;99765.16;2111578;27;19922;-46
2022/08/26 04:22:13;;;;;;;;;;;;;;;26.50;53.00;99773.44;2111277;27;19919;-46
2022/08/26 04:23:13;;;;;;;;;;;;;;;26.51;53.14;99766.88;2091176;28;19909;-45
2022/08/26 04:24:14;;;;;;;;;;;;;;;26.50;53.22;99765.16;2095734;28;19916;-45
2022/08/26 04:25:15;;;;;;;;;;;;;;;26.51;53.15;99772.41;2100445;28;19961;-46
2022/08/26 04:26:17;;;;;;;;;;;;;;;26.51;53.08;99771.56;2097746;28;19984;-46
2022/08/26 04:27:17;;;;;;;;;;;;;;;26.50;53.21;99773.44;2115162;27;19926;-46
2022/08/26 04:28:17;;;;;;;;;;;;;;;26.50;52.87;99770.69;2108742;27;20342;-45
2022/08/26 04:29:19;;;;;;;;;;;;;;;26.50;52.95;99776.22;2100189;28;19923;-46
2022/08/26 04:30:20;;;;;;;;;;;;;;;26.49;53.04;99779.19;2108026;28;20359;-46
2022/08/26 04:31:21;;;;;;;;;;;;;;;26.49;53.15;99777.28;2096122;28;19922;-46
2022/08/26 04:32:21;;;;;;;;;;;;;;;26.49;53.04;99769.00;2094451;28;20469;-46
2022/08/26 04:33:22;;;;;;;;;;;;;;;26.49;53.03;99782.81;2099192;28;19912;-46
2022/08/26 04:34:24;;;;;;;;;;;;;;;26.50;53.05;99776.22;2113572;27;20568;-45
2022/08/26 04:35:25;;;;;;;;;;;;;;;26.49;53.22;99776.44;2115475;27;19926;-45
2022/08/26 04:36:25;;;;;;;;;;;;;;;26.50;53.22;99784.50;2094605;28;19927;-46
2022/08/26 04:37:26;;;;;;;;;;;;;;;26.48;53.12;99772.81;2092078;28;20415;-46
2022/08/26 04:38:26;;;;;;;;;;;;;;;26.48;53.26;99775.59;2093046;28;19918;-46
2022/08/26 04:39:27;;;;;;;;;;;;;;;26.48;53.06;99783.00;2093443;28;19916;-47
2022/08/26 04:40:27;;;;;;;;;;;;;;;26.48;53.10;99778.34;2108791;28;19911;-46
2022/08/26 04:41:28;;;;;;;;;;;;;;;26.49;52.95;99787.50;2115449;27;20019;-46
2022/08/26 04:42:28;;;;;;;;;;;;;;;26.48;52.94;99771.94;2099231;28;19916;-46
2022/08/26 04:43:30;;;;;;;;;;;;;;;26.47;53.14;99778.56;2098721;28;19919;-45
2022/08/26 04:44:30;;;;;;;;;;;;;;;26.47;53.16;99782.16;2097294;28;20219;-45
2022/08/26 04:45:30;;;;;;;;;;;;;;;26.46;52.97;99774.94;2092857;28;19920;-45
2022/08/26 04:46:31;;;;;;;;;;;;;;;26.46;53.25;99785.16;2097347;28;19908;-46
2022/08/26 04:47:31;;;;;;;;;;;;;;;26.46;53.12;99780.47;2098829;28;19916;-46
2022/08/26 04:48:32;;;;;;;;;;;;;;;26.46;52.97;99786.00;2100615;28;19916;-45
2022/08/26 04:49:32;;;;;;;;;;;;;;;26.46;52.98;99791.53;2096149;28;20380;-46
2022/08/26 04:50:33;;;;;;;;;;;;;;;26.46;53.05;99785.16;2099939;28;19916;-46
2022/08/26 04:51:34;;;;;;;;;;;;;;;26.46;52.98;99791.53;2099154;28;20359;-46
2022/08/26 04:52:35;;;;;;;;;;;;;;;26.46;53.00;99787.91;2095449;28;19970;-46
2022/08/26 04:53:36;;;;;;;;;;;;;;;26.46;53.02;99786.00;2101011;28;19919;-45
2022/08/26 04:54:36;;;;;;;;;;;;;;;26.45;53.18;99795.31;2097637;28;20300;-46
2022/08/26 04:55:38;;;;;;;;;;;;;;;26.47;53.11;99793.22;2099402;28;19928;-45
2022/08/26 04:56:40;;;;;;;;;;;;;;;26.45;52.91;99792.56;2090946;28;19938;-45
2022/08/26 04:57:40;;;;;;;;;;;;;;;26.47;53.11;99798.75;2083924;28;19916;-46
2022/08/26 04:58:41;;;;;;;;;;;;;;;26.46;53.21;99791.53;2091174;28;19912;-45
2022/08/26 04:59:41;;;;;;;;;;;;;;;26.46;53.03;99791.53;2093679;28;20031;-46
2022/08/26 05:00:45;;;;;;;;;;;;;;;26.47;53.06;99793.22;2094875;28;20009;-45
2022/08/26 05:01:47;;;;;;;;;;;;;;;26.46;52.99;99786.00;2092301;28;19924;-45
2022/08/26 05:02:47;;;;;;;;;;;;;;;26.46;53.15;99787.91;2098976;28;19989;-46
2022/08/26 05:03:48;;;;;;;;;;;;;;;26.46;53.05;99794.28;2097915;28;19916;-45
2022/08/26 05:04:48;;;;;;;;;;;;;;;26.46;52.98;99791.53;2111338;27;19927;-46
2022/08/26 05:05:49;;;;;;;;;;;;;;;26.46;52.92;99786.00;2113307;27;19916;-46
2022/08/26 05:06:50;;;;;;;;;;;;;;;26.46;53.27;99782.38;2099760;28;19912;-46
2022/08/26 05:07:50;;;;;;;;;;;;;;;26.46;52.99;99786.00;2096589;28;20476;-46
2022/08/26 05:08:50;;;;;;;;;;;;;;;26.46;53.26;99786.00;2091299;28;20542;-46
2022/08/26 05:09:51;;;;;;;;;;;;;;;26.46;52.98;99783.22;2098561;28;19974;-46
2022/08/26 05:10:55;;;;;;;;;;;;;;;26.46;52.93;99785.16;2098733;28;20003;-46
2022/08/26 05:11:55;;;;;;;;;;;;;;;26.46;53.27;99788.75;2098226;28;19920;-45
2022/08/26 05:12:59;;;;;;;;;;;;;;;26.46;53.27;99786.00;2097026;28;19916;-45
2022/08/26 05:13:59;;;;;;;;;;;;;;;26.46;53.06;99786.00;2114739;27;20723;-45
2022/08/26 05:14:59;;;;;;;;;;;;;;;26.45;53.08;99784.28;2107719;27;19923;-45
2022/08/26 05:16:03;;;;;;;;;;;;;;;26.46;52.95;99782.38;2100651;28;20074;-46
2022/08/26 05:17:04;;;;;;;;;;;;;;;26.46;53.21;99788.75;2092467;28;20364;-46
2022/08/26 05:18:05;;;;;;;;;;;;;;;26.46;53.04;99787.91;2098163;28;19915;-46
2022/08/26 05:19:06;;;;;;;;;;;;;;;26.45;53.06;99783.44;2099184;28;20065;-46
2022/08/26 05:20:06;;;;;;;;;;;;;;;26.46;52.97;99790.69;2107563;28;20440;-46
2022/08/26 05:21:07;;;;;;;;;;;;;;;26.46;53.27;99791.53;2098788;28;19989;-46